createdAt,value
2018-07-07T00:02:20.237Z,7.11
2018-07-07T00:08:15.258Z,7.68
2018-07-07T00:14:10.266Z,8.18
2018-07-07T00:20:05.267Z,7.93
2018-07-07T00:26:00.256Z,8.09
2018-07-07T00:31:55.278Z,7.16
2018-07-07T00:37:50.272Z,7.53
2018-07-07T00:43:45.260Z,8.46
2018-07-07T00:49:40.293Z,7.63
2018-07-07T00:55:35.286Z,8.32
2018-07-07T01:01:30.378Z,8.99
2018-07-07T01:07:25.315Z,8.34
2018-07-07T01:13:20.327Z,8.53
2018-07-07T01:19:15.274Z,8.41
2018-07-07T01:25:10.286Z,7.67
2018-07-07T01:31:05.487Z,7.77
2018-07-07T01:37:00.295Z,7.49
2018-07-07T01:42:55.336Z,7.46
2018-07-07T01:48:50.363Z,8.07
2018-07-07T01:54:45.295Z,8.46
2018-07-07T02:00:40.321Z,8.88
2018-07-07T02:06:35.324Z,8.87
2018-07-07T02:12:30.369Z,9.12
2018-07-07T02:18:25.360Z,8.68
2018-07-07T02:24:20.374Z,8.24
2018-07-07T02:30:15.374Z,8.27
2018-07-07T02:36:10.355Z,7.3
2018-07-07T02:42:05.378Z,7.63
2018-07-07T02:48:00.354Z,7.93
2018-07-07T02:53:55.361Z,7.96
2018-07-07T02:59:50.348Z,7.89
2018-07-07T03:05:45.447Z,8.37
2018-07-07T03:11:40.353Z,7.65
2018-07-07T03:17:35.380Z,8.36
2018-07-07T03:23:30.364Z,7.91
2018-07-07T03:29:25.453Z,8.06
2018-07-07T03:35:20.387Z,8.19
2018-07-07T03:41:15.396Z,7.95
2018-07-07T03:47:10.429Z,8.01
2018-07-07T03:53:05.497Z,9.22
2018-07-07T03:59:00.451Z,7.81
2018-07-07T04:04:55.409Z,8.47
2018-07-07T04:10:50.413Z,8.27
2018-07-07T04:16:45.404Z,8.99
2018-07-07T04:22:40.444Z,8.34
2018-07-07T04:28:35.440Z,8.2
2018-07-07T04:34:30.423Z,9
2018-07-07T04:40:25.425Z,8.04
2018-07-07T04:46:20.426Z,7.63
2018-07-07T04:52:15.498Z,7.72
2018-07-07T04:58:10.427Z,8.45
2018-07-07T05:04:05.486Z,7.93
2018-07-07T05:10:00.433Z,8.33
2018-07-07T05:15:55.512Z,8.65
2018-07-07T05:21:50.448Z,8.11
2018-07-07T05:27:45.567Z,8.47
2018-07-07T05:33:40.482Z,8.35
2018-07-07T05:39:35.461Z,8.85
2018-07-07T05:45:30.525Z,9.64
2018-07-07T05:51:25.489Z,9.4
2018-07-07T05:57:20.486Z,9.5
2018-07-07T06:03:15.528Z,8.53
2018-07-07T06:09:10.537Z,9.68
2018-07-07T06:15:05.997Z,8.93
2018-07-07T06:21:00.747Z,8.57
2018-07-07T06:26:55.491Z,9.21
2018-07-07T06:32:50.491Z,9.27
2018-07-07T06:38:45.501Z,9.46
2018-07-07T06:44:40.481Z,9.02
2018-07-07T06:50:35.507Z,9.72
2018-07-07T06:56:30.526Z,8.76
2018-07-07T07:02:25.510Z,9.51
2018-07-07T07:08:20.527Z,8.66
2018-07-07T07:14:15.557Z,7.49
2018-07-07T07:20:10.531Z,7.67
2018-07-07T07:26:05.614Z,7.19
2018-07-07T07:32:00.552Z,6.49
2018-07-07T07:37:55.525Z,6.03
2018-07-07T07:43:50.562Z,6.72
2018-07-07T07:49:45.555Z,5.41
2018-07-07T07:55:40.589Z,5.9
2018-07-07T08:01:35.588Z,5.17
2018-07-07T08:07:30.559Z,5.81
2018-07-07T08:13:25.598Z,5.8
2018-07-07T08:19:20.586Z,4.97
2018-07-07T08:25:15.591Z,5.7
2018-07-07T08:31:10.632Z,5.57
2018-07-07T08:37:05.576Z,5.84
2018-07-07T08:43:00.597Z,5.8
2018-07-07T08:48:55.623Z,5.9
2018-07-07T08:54:50.606Z,5.41
2018-07-07T09:00:45.736Z,5.69
2018-07-07T09:06:40.612Z,5.3
2018-07-07T09:12:35.641Z,4.76
2018-07-07T09:18:30.604Z,5.06
2018-07-07T09:24:25.684Z,4.32
2018-07-07T09:30:20.694Z,4.08
2018-07-07T09:36:15.682Z,4.28
2018-07-07T09:42:10.628Z,4.2
2018-07-07T09:48:05.644Z,4.05
2018-07-07T09:54:00.644Z,4.02
2018-07-07T09:59:55.652Z,4.26
2018-07-07T10:05:50.661Z,3.68
2018-07-07T10:11:45.679Z,3.94
2018-07-07T10:17:40.677Z,3.92
2018-07-07T10:23:35.734Z,3.92
2018-07-07T10:29:30.671Z,3.93
2018-07-07T10:35:25.667Z,3.57
2018-07-07T10:41:20.718Z,3.95
2018-07-07T10:47:15.687Z,3.66
2018-07-07T10:53:10.728Z,3.71
2018-07-07T10:59:05.703Z,4.6
2018-07-07T11:05:00.741Z,5.3
2018-07-07T11:10:55.723Z,5.16
2018-07-07T11:16:50.770Z,3.59
2018-07-07T11:22:46.207Z,4.09
2018-07-07T11:28:40.735Z,3.22
2018-07-07T11:34:35.721Z,3.24
2018-07-07T11:40:30.797Z,3.77
2018-07-07T11:46:25.714Z,2.88
2018-07-07T11:52:20.744Z,2.69
2018-07-07T11:58:15.744Z,3.03
2018-07-07T12:04:10.741Z,2.81
2018-07-07T12:10:05.893Z,3.28
2018-07-07T12:16:00.749Z,3.1
2018-07-07T12:21:55.765Z,3.25
2018-07-07T12:27:50.760Z,2.72
2018-07-07T12:33:45.777Z,2.86
2018-07-07T12:39:40.799Z,3.14
2018-07-07T12:45:35.846Z,3.08
2018-07-07T12:51:30.782Z,3.77
2018-07-07T12:57:25.791Z,3.6
2018-07-07T13:03:20.794Z,4.18
2018-07-07T13:09:15.846Z,4.34
2018-07-07T13:15:10.871Z,3.75
2018-07-07T13:21:05.887Z,4.26
2018-07-07T13:27:00.830Z,4.33
2018-07-07T13:32:55.806Z,4.09
2018-07-07T13:38:50.896Z,4.7
2018-07-07T13:44:45.868Z,4.32
2018-07-07T13:50:40.821Z,5.16
2018-07-07T13:56:35.827Z,4.15
2018-07-07T14:02:30.829Z,4.4
2018-07-07T14:08:25.842Z,4.97
2018-07-07T14:14:20.861Z,4.58
2018-07-07T14:20:15.878Z,4.87
2018-07-07T14:26:10.866Z,4.86
2018-07-07T14:32:05.879Z,5.36
2018-07-07T14:38:00.869Z,5.32
2018-07-07T14:43:55.880Z,5.26
2018-07-07T14:49:50.893Z,4.97
2018-07-07T14:55:45.928Z,5.72
2018-07-07T15:01:40.877Z,6.58
2018-07-07T15:07:35.901Z,5.5
2018-07-07T15:13:30.924Z,5.3
2018-07-07T15:19:25.915Z,4.67
2018-07-07T15:25:20.909Z,4.23
2018-07-07T15:31:15.914Z,4.2
2018-07-07T15:37:10.898Z,4.66
2018-07-07T15:43:05.980Z,4.93
2018-07-07T15:49:00.930Z,4.42
2018-07-07T15:54:55.947Z,4.51
2018-07-07T16:00:50.969Z,4.99
2018-07-07T16:06:45.928Z,4.9
2018-07-07T16:12:40.957Z,5.04
2018-07-07T16:18:35.939Z,4.44
2018-07-07T16:24:30.943Z,4.47
2018-07-07T16:30:25.943Z,4.05
2018-07-07T16:36:20.984Z,3.89
2018-07-07T16:42:15.939Z,3.65
2018-07-07T16:48:10.985Z,3.73
2018-07-07T16:54:05.984Z,3.51
2018-07-07T17:00:00.969Z,3.53
2018-07-07T17:05:56.010Z,3.51
2018-07-07T17:11:50.987Z,4.21
2018-07-07T17:17:45.990Z,3.71
2018-07-07T17:23:41.059Z,4.23
2018-07-07T17:29:36.031Z,3.83
2018-07-07T17:35:30.994Z,4.44
2018-07-07T17:41:26.030Z,4.28
2018-07-07T17:47:21.000Z,4.03
2018-07-07T17:53:16.016Z,4.03
2018-07-07T17:59:11.040Z,4.51
2018-07-07T18:05:06.006Z,3.92
2018-07-07T18:11:01.057Z,4.03
2018-07-07T18:16:56.072Z,4.57
2018-07-07T18:22:51.071Z,4.43
2018-07-07T18:28:46.044Z,4.26
2018-07-07T18:34:41.070Z,4.54
2018-07-07T18:40:36.047Z,4.65
2018-07-07T18:46:31.090Z,4.65
2018-07-07T18:52:26.074Z,4.71
2018-07-07T18:58:21.063Z,4.77
2018-07-07T19:04:16.084Z,4.86
2018-07-07T19:10:11.216Z,5.15
2018-07-07T19:16:06.064Z,5.08
2018-07-07T19:22:01.109Z,4.77
2018-07-07T19:27:56.060Z,5.24
2018-07-07T19:33:51.082Z,4.87
2018-07-07T19:39:46.102Z,5.39
2018-07-07T19:45:41.139Z,5.11
2018-07-07T19:51:36.114Z,5.65
2018-07-07T19:57:31.084Z,5.21
2018-07-07T20:03:26.153Z,5.4
2018-07-07T20:09:21.113Z,5.41
2018-07-07T20:15:16.098Z,5.55
2018-07-07T20:21:11.115Z,5.37
2018-07-07T20:27:06.127Z,5
2018-07-07T20:33:01.138Z,5.19
2018-07-07T20:38:56.142Z,5.03
2018-07-07T20:44:51.137Z,5.22
2018-07-07T20:50:46.153Z,4.71
2018-07-07T20:56:41.141Z,4.61
2018-07-07T21:02:36.147Z,4.79
2018-07-07T21:08:31.159Z,4.59
2018-07-07T21:14:26.153Z,5.07
2018-07-07T21:20:21.182Z,4.92
2018-07-07T21:26:16.168Z,5.21
2018-07-07T21:32:11.189Z,5.11
2018-07-07T21:38:06.182Z,4.87
2018-07-07T21:44:01.167Z,5.21
2018-07-07T21:49:56.195Z,4.69
2018-07-07T21:55:51.177Z,4.93
2018-07-07T22:01:46.183Z,5.31
2018-07-07T22:07:41.189Z,5.71
2018-07-07T22:13:36.205Z,5.61
2018-07-07T22:19:31.201Z,5.21
2018-07-07T22:25:26.212Z,5.56
2018-07-07T22:31:21.247Z,4.84
2018-07-07T22:37:16.228Z,5.73
2018-07-07T22:43:11.220Z,5.55
2018-07-07T22:49:06.242Z,5.28
2018-07-07T22:55:01.213Z,5.53
2018-07-07T23:00:56.246Z,5.56
2018-07-07T23:06:51.250Z,5.16
2018-07-07T23:12:46.283Z,6.08
2018-07-07T23:18:41.260Z,5.45
2018-07-07T23:24:36.242Z,5.62
2018-07-07T23:30:31.249Z,6.06
2018-07-07T23:36:26.251Z,5.31
2018-07-07T23:42:21.284Z,5.59
2018-07-07T23:48:16.247Z,5.86
2018-07-07T23:54:11.332Z,5.5
